x

Ilm2 - 5 Miles Se Of Wrightsville Beach, Nc (41038) Weather Station

11:08 - Tue 6th Dec 2016 All times are EST. -5 hours from GMT.

  • Wind
    20mph, 34mph gusts
  • Sea Temp 62°f
  • Luft Temp 62°f
  • Sea Pressure 1007.2mb
  • Ilm2 - 5 Miles Se Of Wrightsville Beach, Nc
  • Ilm2 - 5 Miles Se Of Wrightsville Beach, Nc

More Historic Weather Station data

Upgrade to MSW Pro to gain access to the past 30 days of data for over 8000 Wavebouys and Weather Stations around the globe.

Join Pro

Comparision Forecast

View Surf forecast
   
Di 12/06 11:08 20 34 mph 1007.2mb 62f 62f
10:08 13 25 mph 1008.5mb 62f 59f
9:08 16 25 mph 1008.9mb 62f 60f
8:08 18 27 mph 1010.2mb 62f 59f
6:08 20 36 mph 1010.9mb 62f 54f
4:08 18 34 mph 1013.7mb 62f 50f
3:08 18 31 mph 1014.3mb 62f 50f
2:08 16 25 mph 1015.9mb 62f 50f
1:08 18 31 mph 1015.5mb 62f 51f
12:08 16 29 mph 1015.8mb 62f 51f
Mo 12/05 11:08 16 38 mph 1015.6mb 62f 52f
10:08 16 29 mph 1015.8mb 62f 54f
8:08 13 25 mph 1016.6mb 62f 57f
7:08 13 22 mph 1016.3mb 62f 57f
6:08 13 22 mph 1015.1mb 62f 57f
5:08 9 16 mph 1015.1mb 62f 56f
4:08 11 20 mph 1014.5mb 62f 58f
3:08 9 16 mph 1014.5mb 62f 58f
2:08 13 20 mph 1013.7mb 63f 57f
1:08 11 22 mph 1014mb 63f 54f
12:08 9 16 mph 1014.3mb 63f 51f
11:08 11 16 mph 1015.6mb 63f 49f
10:08 11 18 mph 1016.2mb 63f 49f
9:08 16 29 mph 1015.2mb 63f 51f
8:08 16 29 mph 1014.1mb 63f 54f
7:08 16 25 mph 1013.7mb 63f 55f
6:08 13 27 mph 1013.3mb 63f 56f
5:08 20 34 mph 1011.2mb 63f 63f
4:08 18 25 mph 1012.2mb 63f 62f
3:08 11 16 mph 1013.3mb 63f 61f
2:08 9 13 mph 1014.6mb 63f 60f
1:08 16 22 mph 1015.1mb 63f 61f
12:08 16 20 mph 1016.3mb 63f 61f
So 12/04 11:08 11 16 mph 1017.6mb 63f 58f
10:08 16 27 mph 1018.3mb 63f 56f
9:08 20 31 mph 1018.4mb 63f 55f
8:08 16 27 mph 1019.8mb 63f 54f
7:08 18 29 mph 1020.4mb 63f 53f
5:08 16 27 mph 1021.3mb 63f 50f
4:08 18 25 mph 1021.5mb 63f 49f
3:08 13 20 mph 1022.2mb 63f 50f
1:08 18 27 mph 1022.3mb 63f 49f
12:08 18 25 mph 1023mb 63f 49f
11:08 16 22 mph 1023.9mb 63f 50f
10:08 16 25 mph 1024.8mb 63f 50f
9:08 13 20 mph 1024.8mb 63f 50f
8:08 16 20 mph 1024.6mb 63f 50f
7:08 13 22 mph 1024.1mb 63f 51f
6:08 13 20 mph 1023.9mb 63f 51f
5:08 16 22 mph 1023.5mb 63f 51f
4:08 18 29 mph 1023.1mb 63f 51f
3:08 13 20 mph 1022.9mb 63f 51f
1:08 13 20 mph 1023.3mb 63f 50f
12:08 11 18 mph 1024.2mb 63f 50f
Sa 12/03 11:08 13 20 mph 1025.2mb 63f 49f
10:08 11 18 mph 1024.7mb 63f 50f
9:08 11 18 mph 1023.6mb 63f 50f
7:08 11 18 mph 1023.6mb 63f 50f
6:08 13 20 mph 1023.3mb 63f 50f
5:08 11 18 mph 1022.8mb 63f 50f
4:08 9 16 mph 1023.2mb 63f 50f
1:08 9 18 mph 1022.3mb 63f 47f
12:08 11 22 mph 1024.2mb 63f 47f
11:08 16 27 mph 1025.2mb 63f 46f
10:08 22 36 mph 1025.6mb 63f 46f
9:08 22 34 mph 1024.4mb 63f 45f
8:08 22 36 mph 1023.4mb 63f 45f
7:08 22 38 mph 1023.2mb 63f 45f
5:08 20 36 mph 1022.4mb 63f 46f
4:08 25 36 mph 1021.9mb 63f 47f
3:08 20 34 mph 1021.6mb 63f 48f
2:08 20 29 mph 1020.9mb 63f 51f
12:08 16 22 mph 1020.7mb 64f 51f
Fr 12/02 11:08 16 22 mph 1021.4mb 64f 52f
10:08 13 22 mph 1021.3mb 64f 52f
9:08 16 25 mph 1020.6mb 64f 53f
8:08 13 20 mph 1020.5mb 64f 54f
7:08 16 20 mph 1019.9mb 64f 54f
6:08 13 20 mph 1019.6mb 64f 55f